MiSS Kori — WDF5911 — position and weather

sailwx.info

Track history (hours):
 
Tides and Currents Weather Stations Pressure Air Temp Water Temp Dewpoint Dewpoint Depression Visibility Wind Speed Wind Dir Waves Ship Positions

MiSS Kori

Owner: Crosby Marine Transportation LLC, Golden Meadow, LA. More information available from US FCC via Universal Licensing System and Coast Guard Vessel Documentation Center.

Last reported at 2017-Nov-17 13:52 UTC. Time now 2017-Nov-20 12:05 UTC.
Position N 29°44' W 095°09'.

Length 18 m; draft 2.5 m.

Type: Towing. MMSI: 367468590.

Date/timePositionNaut miles runAvg speedWind from/ knotsBaromVisibWave heightAir tempDewpointWater temp
2017-Nov-17 13:52N 29°44' W 095°09'0 0.0
2017-Nov-17 13:29N 29°44' W 095°09'0 0.0
2017-Nov-17 12:48N 29°44' W 095°09'0 0.0
2017-Nov-17 12:29N 29°44' W 095°09'0 0.0
2017-Nov-17 09:54N 29°44' W 095°09'0 0.0
2017-Nov-17 06:04N 29°44' W 095°10'0 0.6
2017-Nov-17 06:00N 29°44' W 095°10'0 0.0
2017-Nov-17 03:44N 29°44' W 095°09'0 0.0
2017-Nov-17 03:29N 29°44' W 095°09'0 0.0
2017-Nov-16 11:27N 29°44' W 095°09'0 0.0
2017-Nov-16 10:59N 29°44' W 095°09'0 0.0
2017-Nov-16 10:30N 29°44' W 095°09'0 0.0
2017-Nov-16 09:51N 29°44' W 095°09'0 0.0
2017-Nov-16 09:30N 29°44' W 095°09'0 0.0
2017-Nov-16 08:57N 29°44' W 095°09'0 0.1
2017-Nov-16 07:38N 29°44' W 095°10'1 2.9
2017-Nov-16 07:26N 29°44' W 095°09'3 0.6
2017-Nov-16 02:58N 29°45' W 095°06'3 6.5
2017-Nov-16 02:30N 29°44' W 095°09'0 0.1
2017-Nov-16 01:34N 29°44' W 095°09'0 1.0
2017-Nov-16 01:30N 29°44' W 095°10'0 0.0
2017-Nov-16 00:09N 29°44' W 095°10'1 0.1
2017-Nov-15 11:35N 29°44' W 095°08'1 5.7
2017-Nov-15 11:29N 29°44' W 095°09'1 1.2
2017-Nov-15 11:00N 29°44' W 095°09'0 0.0
2017-Nov-15 10:29N 29°44' W 095°09'0 0.0
2017-Nov-15 10:00N 29°44' W 095°09'0 0.1
2017-Nov-15 09:14N 29°44' W 095°10'0 0.0
2017-Nov-15 08:54N 29°44' W 095°10'0 0.0
2017-Nov-15 08:17N 29°44' W 095°10'0 0.3
2017-Nov-15 07:59N 29°44' W 095°09'0 0.0
2017-Nov-15 07:30N 29°44' W 095°09'0 0.0
2017-Nov-15 06:57N 29°44' W 095°09'0 0.0
2017-Nov-15 06:30N 29°44' W 095°09'0 0.0
2017-Nov-15 05:58N 29°44' W 095°09'0 0.0
2017-Nov-15 05:16N 29°44' W 095°09'0 0.0
2017-Nov-15 05:00N 29°44' W 095°09'0 0.1
2017-Nov-15 04:30N 29°44' W 095°09'0 0.1
2017-Nov-15 03:59N 29°44' W 095°10'0 0.0
2017-Nov-14 12:21N 29°44' W 095°09'0 0.0
2017-Nov-14 12:00N 29°44' W 095°09'0 0.2
2017-Nov-14 11:27N 29°44' W 095°10'0 0.3
2017-Nov-14 10:55N 29°44' W 095°10'0 0.2
2017-Nov-14 10:29N 29°44' W 095°09'0 0.0
2017-Nov-14 10:00N 29°44' W 095°09'0 0.0
2017-Nov-14 09:30N 29°44' W 095°09'0 0.0
2017-Nov-14 08:59N 29°44' W 095°09'0 0.0
2017-Nov-14 08:29N 29°44' W 095°09'0 0.2
2017-Nov-14 07:54N 29°44' W 095°10'0 0.4
2017-Nov-14 07:30N 29°44' W 095°10'0 0.3
2017-Nov-14 07:00N 29°44' W 095°09'3 1.1
2017-Nov-14 04:32N 29°45' W 095°06'1 6.1
2017-Nov-14 04:18N 29°44' W 095°08'1 4.4
2017-Nov-14 04:00N 29°44' W 095°09'0 0.0
2017-Nov-13 23:49N 29°44' W 095°10'1 0.0
2017-Nov-12 21:37N 29°44' W 095°08'1 4.3
2017-Nov-12 21:29N 29°44' W 095°09'1 0.3
2017-Nov-12 19:56N 29°44' W 095°08'1 1.0
2017-Nov-12 18:48N 29°44' W 095°10'0 0.3
2017-Nov-12 18:30N 29°44' W 095°09'0 0.0
2017-Nov-12 13:57N 29°44' W 095°09'0 0.0
2017-Nov-12 13:27N 29°44' W 095°09'0 0.0
2017-Nov-12 12:54N 29°44' W 095°09'0 0.1
2017-Nov-12 12:20N 29°44' W 095°10'0 0.1
2017-Nov-12 11:56N 29°44' W 095°10'0 0.0
2017-Nov-12 09:00N 29°44' W 095°09'0 0.3
2017-Nov-12 08:28N 29°44' W 095°10'1 2.1
2017-Nov-12 07:59N 29°44' W 095°08'3 1.2
2017-Nov-12 05:37N 29°45' W 095°06'1 5.4
2017-Nov-12 05:24N 29°44' W 095°06'2 5.1
2017-Nov-12 05:00N 29°44' W 095°09'1 1.3
2017-Nov-12 04:29N 29°44' W 095°10'0 0.2
2017-Nov-12 04:00N 29°44' W 095°09'0 0.0
2017-Nov-12 03:30N 29°44' W 095°09'0 0.0
2017-Nov-12 02:56N 29°44' W 095°09'0 0.0
2017-Nov-12 02:30N 29°44' W 095°09'0 0.1
2017-Nov-12 01:34N 29°44' W 095°10'0 0.0
2017-Nov-12 01:26N 29°44' W 095°10'0 0.2
2017-Nov-12 00:47N 29°44' W 095°10'0 0.2
2017-Nov-12 00:16N 29°44' W 095°10'0 0.1
2017-Nov-12 00:00N 29°44' W 095°10'1 0.4
2017-Nov-11 21:18N 29°44' W 095°08'1 0.8
2017-Nov-11 19:51N 29°44' W 095°09'0 0.0
2017-Nov-11 19:30N 29°44' W 095°09'0 0.1
2017-Nov-11 18:53N 29°44' W 095°10'0 0.1
2017-Nov-11 18:29N 29°44' W 095°10'1 0.3
2017-Nov-11 15:40N 29°44' W 095°09'1 1.8
2017-Nov-11 15:20N 29°44' W 095°09'0 0.0
2017-Nov-11 10:36N 29°44' W 095°10'0 0.1
2017-Nov-11 10:18N 29°44' W 095°10'0 0.5
2017-Nov-11 10:00N 29°44' W 095°09'3 5.1
2017-Nov-11 09:30N 29°44' W 095°07'1 0.5
2017-Nov-11 06:33N 29°44' W 095°08'0 4.9
2017-Nov-11 06:30N 29°44' W 095°08'1 1.7
2017-Nov-11 05:55N 29°44' W 095°09'0 0.2
2017-Nov-11 05:30N 29°44' W 095°10'0 0.1
2017-Nov-11 05:00N 29°44' W 095°09'0 0.0
2017-Nov-11 04:30N 29°44' W 095°09'0 0.1
2017-Nov-11 03:06N 29°44' W 095°09'0 0.5
2017-Nov-11 03:00N 29°44' W 095°10'0 0.3
2017-Nov-11 02:29N 29°44' W 095°10'1 1.1
2017-Nov-11 01:56N 29°44' W 095°09'1 0.2
2017-Nov-10 21:50N 29°44' W 095°08'1 0.6
2017-Nov-10 19:47N 29°44' W 095°10'0 0.0
2017-Nov-10 17:01N 29°44' W 095°10'0 0.0
2017-Nov-10 16:59N 29°44' W 095°10'0 0.0
2017-Nov-10 11:56N 29°44' W 095°10'0 0.3
2017-Nov-10 11:28N 29°44' W 095°10'0 0.0
2017-Nov-10 07:59N 29°44' W 095°09'0 0.2
2017-Nov-10 07:29N 29°44' W 095°10'0 0.0
2017-Nov-10 04:50N 29°44' W 095°09'0 0.3
2017-Nov-10 04:29N 29°44' W 095°10'0 0.1
2017-Nov-10 03:57N 29°44' W 095°10'0 0.1
2017-Nov-10 03:04N 29°44' W 095°10'0 0.2
2017-Nov-10 02:54N 29°44' W 095°10'0 0.0
2017-Nov-09 21:38N 29°44' W 095°09'0 0.3
2017-Nov-09 21:18N 29°44' W 095°10'0 0.0
2017-Nov-09 20:44N 29°44' W 095°10'0 0.0
2017-Nov-09 13:49N 29°44' W 095°10'0 0.3
2017-Nov-09 13:28N 29°44' W 095°09'0 0.2
2017-Nov-09 12:59N 29°44' W 095°10'0 0.2
2017-Nov-09 12:22N 29°44' W 095°09'0 0.0
2017-Nov-09 11:59N 29°44' W 095°09'0 0.0
2017-Nov-09 11:30N 29°44' W 095°09'0 0.0
2017-Nov-09 10:57N 29°44' W 095°09'0 0.0
2017-Nov-09 10:28N 29°44' W 095°09'0 0.0
2017-Nov-09 09:59N 29°44' W 095°09'0 0.0
2017-Nov-09 09:30N 29°44' W 095°09'0 0.0
2017-Nov-09 09:00N 29°44' W 095°09'0 0.0
2017-Nov-09 08:21N 29°44' W 095°09'0 0.0
2017-Nov-09 07:47N 29°44' W 095°09'0 0.0
2017-Nov-09 07:28N 29°44' W 095°09'0 0.0
2017-Nov-09 06:57N 29°44' W 095°09'0 0.0
2017-Nov-09 06:29N 29°44' W 095°09'0 0.0
2017-Nov-09 05:58N 29°44' W 095°09'0 0.0
2017-Nov-09 05:30N 29°44' W 095°09'0 0.1
2017-Nov-09 05:00N 29°44' W 095°09'0 0.2
2017-Nov-09 04:29N 29°44' W 095°10'0 0.2
2017-Nov-09 04:00N 29°44' W 095°09'1 0.5
2017-Nov-09 01:30N 29°44' W 095°08'1 1.8
2017-Nov-09 00:52N 29°44' W 095°10'0 0.2
2017-Nov-09 00:26N 29°44' W 095°10'0 0.0
2017-Nov-09 00:00N 29°44' W 095°10'0 0.0
2017-Nov-08 12:44N 29°44' W 095°10'0 0.1
2017-Nov-08 12:19N 29°44' W 095°10'0 0.0
2017-Nov-08 04:29N 29°44' W 095°09'0 0.0
2017-Nov-08 03:58N 29°44' W 095°09'0 0.2
2017-Nov-08 03:29N 29°44' W 095°10'0 0.0
2017-Nov-08 02:41N 29°44' W 095°10'1 0.4
2017-Nov-07 23:16N 29°44' W 095°08'  
Track history (hours):
 
Tides and Currents Weather Stations Pressure Air Temp Water Temp Dewpoint Dewpoint Depression Visibility Wind Speed Wind Dir Waves Ship Positions

MiSS Kori

Owner: Crosby Marine Transportation LLC, Golden Meadow, LA. More information available from US FCC via Universal Licensing System and Coast Guard Vessel Documentation Center.

Last reported at 2017-Nov-17 13:52 UTC. Time now 2017-Nov-20 12:05 UTC.
Position N 29°44' W 095°09'.

Length 18 m; draft 2.5 m.

Type: Towing. MMSI: 367468590.

Date/timePositionNaut miles runAvg speedWind from/ knotsBaromVisibWave heightAir tempDewpointWater temp
2017-Nov-17 13:52N 29°44' W 095°09'0 0.0
2017-Nov-17 13:29N 29°44' W 095°09'0 0.0
2017-Nov-17 12:48N 29°44' W 095°09'0 0.0
2017-Nov-17 12:29N 29°44' W 095°09'0 0.0
2017-Nov-17 09:54N 29°44' W 095°09'0 0.0
2017-Nov-17 06:04N 29°44' W 095°10'0 0.6
2017-Nov-17 06:00N 29°44' W 095°10'0 0.0
2017-Nov-17 03:44N 29°44' W 095°09'0 0.0
2017-Nov-17 03:29N 29°44' W 095°09'0 0.0
2017-Nov-16 11:27N 29°44' W 095°09'0 0.0
2017-Nov-16 10:59N 29°44' W 095°09'0 0.0
2017-Nov-16 10:30N 29°44' W 095°09'0 0.0
2017-Nov-16 09:51N 29°44' W 095°09'0 0.0
2017-Nov-16 09:30N 29°44' W 095°09'0 0.0
2017-Nov-16 08:57N 29°44' W 095°09'0 0.1
2017-Nov-16 07:38N 29°44' W 095°10'1 2.9
2017-Nov-16 07:26N 29°44' W 095°09'3 0.6
2017-Nov-16 02:58N 29°45' W 095°06'3 6.5
2017-Nov-16 02:30N 29°44' W 095°09'0 0.1
2017-Nov-16 01:34N 29°44' W 095°09'0 1.0
2017-Nov-16 01:30N 29°44' W 095°10'0 0.0
2017-Nov-16 00:09N 29°44' W 095°10'1 0.1
2017-Nov-15 11:35N 29°44' W 095°08'1 5.7
2017-Nov-15 11:29N 29°44' W 095°09'1 1.2
2017-Nov-15 11:00N 29°44' W 095°09'0 0.0
2017-Nov-15 10:29N 29°44' W 095°09'0 0.0
2017-Nov-15 10:00N 29°44' W 095°09'0 0.1
2017-Nov-15 09:14N 29°44' W 095°10'0 0.0
2017-Nov-15 08:54N 29°44' W 095°10'0 0.0
2017-Nov-15 08:17N 29°44' W 095°10'0 0.3
2017-Nov-15 07:59N 29°44' W 095°09'0 0.0
2017-Nov-15 07:30N 29°44' W 095°09'0 0.0
2017-Nov-15 06:57N 29°44' W 095°09'0 0.0
2017-Nov-15 06:30N 29°44' W 095°09'0 0.0
2017-Nov-15 05:58N 29°44' W 095°09'0 0.0
2017-Nov-15 05:16N 29°44' W 095°09'0 0.0
2017-Nov-15 05:00N 29°44' W 095°09'0 0.1
2017-Nov-15 04:30N 29°44' W 095°09'0 0.1
2017-Nov-15 03:59N 29°44' W 095°10'0 0.0
2017-Nov-14 12:21N 29°44' W 095°09'0 0.0
2017-Nov-14 12:00N 29°44' W 095°09'0 0.2
2017-Nov-14 11:27N 29°44' W 095°10'0 0.3
2017-Nov-14 10:55N 29°44' W 095°10'0 0.2
2017-Nov-14 10:29N 29°44' W 095°09'0 0.0
2017-Nov-14 10:00N 29°44' W 095°09'0 0.0
2017-Nov-14 09:30N 29°44' W 095°09'0 0.0
2017-Nov-14 08:59N 29°44' W 095°09'0 0.0
2017-Nov-14 08:29N 29°44' W 095°09'0 0.2
2017-Nov-14 07:54N 29°44' W 095°10'0 0.4
2017-Nov-14 07:30N 29°44' W 095°10'0 0.3
2017-Nov-14 07:00N 29°44' W 095°09'3 1.1
2017-Nov-14 04:32N 29°45' W 095°06'1 6.1
2017-Nov-14 04:18N 29°44' W 095°08'1 4.4
2017-Nov-14 04:00N 29°44' W 095°09'0 0.0
2017-Nov-13 23:49N 29°44' W 095°10'1 0.0
2017-Nov-12 21:37N 29°44' W 095°08'1 4.3
2017-Nov-12 21:29N 29°44' W 095°09'1 0.3
2017-Nov-12 19:56N 29°44' W 095°08'1 1.0
2017-Nov-12 18:48N 29°44' W 095°10'0 0.3
2017-Nov-12 18:30N 29°44' W 095°09'0 0.0
2017-Nov-12 13:57N 29°44' W 095°09'0 0.0
2017-Nov-12 13:27N 29°44' W 095°09'0 0.0
2017-Nov-12 12:54N 29°44' W 095°09'0 0.1
2017-Nov-12 12:20N 29°44' W 095°10'0 0.1
2017-Nov-12 11:56N 29°44' W 095°10'0 0.0
2017-Nov-12 09:00N 29°44' W 095°09'0 0.3
2017-Nov-12 08:28N 29°44' W 095°10'1 2.1
2017-Nov-12 07:59N 29°44' W 095°08'3 1.2
2017-Nov-12 05:37N 29°45' W 095°06'1 5.4
2017-Nov-12 05:24N 29°44' W 095°06'2 5.1
2017-Nov-12 05:00N 29°44' W 095°09'1 1.3
2017-Nov-12 04:29N 29°44' W 095°10'0 0.2
2017-Nov-12 04:00N 29°44' W 095°09'0 0.0
2017-Nov-12 03:30N 29°44' W 095°09'0 0.0
2017-Nov-12 02:56N 29°44' W 095°09'0 0.0
2017-Nov-12 02:30N 29°44' W 095°09'0 0.1
2017-Nov-12 01:34N 29°44' W 095°10'0 0.0
2017-Nov-12 01:26N 29°44' W 095°10'0 0.2
2017-Nov-12 00:47N 29°44' W 095°10'0 0.2
2017-Nov-12 00:16N 29°44' W 095°10'0 0.1
2017-Nov-12 00:00N 29°44' W 095°10'1 0.4
2017-Nov-11 21:18N 29°44' W 095°08'1 0.8
2017-Nov-11 19:51N 29°44' W 095°09'0 0.0
2017-Nov-11 19:30N 29°44' W 095°09'0 0.1
2017-Nov-11 18:53N 29°44' W 095°10'0 0.1
2017-Nov-11 18:29N 29°44' W 095°10'1 0.3
2017-Nov-11 15:40N 29°44' W 095°09'1 1.8
2017-Nov-11 15:20N 29°44' W 095°09'0 0.0
2017-Nov-11 10:36N 29°44' W 095°10'0 0.1
2017-Nov-11 10:18N 29°44' W 095°10'0 0.5
2017-Nov-11 10:00N 29°44' W 095°09'3 5.1
2017-Nov-11 09:30N 29°44' W 095°07'1 0.5
2017-Nov-11 06:33N 29°44' W 095°08'0 4.9
2017-Nov-11 06:30N 29°44' W 095°08'1 1.7
2017-Nov-11 05:55N 29°44' W 095°09'0 0.2
2017-Nov-11 05:30N 29°44' W 095°10'0 0.1
2017-Nov-11 05:00N 29°44' W 095°09'0 0.0
2017-Nov-11 04:30N 29°44' W 095°09'0 0.1
2017-Nov-11 03:06N 29°44' W 095°09'0 0.5
2017-Nov-11 03:00N 29°44' W 095°10'0 0.3
2017-Nov-11 02:29N 29°44' W 095°10'1 1.1
2017-Nov-11 01:56N 29°44' W 095°09'1 0.2
2017-Nov-10 21:50N 29°44' W 095°08'1 0.6
2017-Nov-10 19:47N 29°44' W 095°10'0 0.0
2017-Nov-10 17:01N 29°44' W 095°10'0 0.0
2017-Nov-10 16:59N 29°44' W 095°10'0 0.0
2017-Nov-10 11:56N 29°44' W 095°10'0 0.3
2017-Nov-10 11:28N 29°44' W 095°10'0 0.0
2017-Nov-10 07:59N 29°44' W 095°09'0 0.2
2017-Nov-10 07:29N 29°44' W 095°10'0 0.0
2017-Nov-10 04:50N 29°44' W 095°09'0 0.3
2017-Nov-10 04:29N 29°44' W 095°10'0 0.1
2017-Nov-10 03:57N 29°44' W 095°10'0 0.1
2017-Nov-10 03:04N 29°44' W 095°10'0 0.2
2017-Nov-10 02:54N 29°44' W 095°10'0 0.0
2017-Nov-09 21:38N 29°44' W 095°09'0 0.3
2017-Nov-09 21:18N 29°44' W 095°10'0 0.0
2017-Nov-09 20:44N 29°44' W 095°10'0 0.0
2017-Nov-09 13:49N 29°44' W 095°10'0 0.3
2017-Nov-09 13:28N 29°44' W 095°09'0 0.2
2017-Nov-09 12:59N 29°44' W 095°10'0 0.2
2017-Nov-09 12:22N 29°44' W 095°09'0 0.0
2017-Nov-09 11:59N 29°44' W 095°09'0 0.0
2017-Nov-09 11:30N 29°44' W 095°09'0 0.0
2017-Nov-09 10:57N 29°44' W 095°09'0 0.0
2017-Nov-09 10:28N 29°44' W 095°09'0 0.0
2017-Nov-09 09:59N 29°44' W 095°09'0 0.0
2017-Nov-09 09:30N 29°44' W 095°09'0 0.0
2017-Nov-09 09:00N 29°44' W 095°09'0 0.0
2017-Nov-09 08:21N 29°44' W 095°09'0 0.0
2017-Nov-09 07:47N 29°44' W 095°09'0 0.0
2017-Nov-09 07:28N 29°44' W 095°09'0 0.0
2017-Nov-09 06:57N 29°44' W 095°09'0 0.0
2017-Nov-09 06:29N 29°44' W 095°09'0 0.0
2017-Nov-09 05:58N 29°44' W 095°09'0 0.0
2017-Nov-09 05:30N 29°44' W 095°09'0 0.1
2017-Nov-09 05:00N 29°44' W 095°09'0 0.2
2017-Nov-09 04:29N 29°44' W 095°10'0 0.2
2017-Nov-09 04:00N 29°44' W 095°09'1 0.5
2017-Nov-09 01:30N 29°44' W 095°08'1 1.8
2017-Nov-09 00:52N 29°44' W 095°10'0 0.2
2017-Nov-09 00:26N 29°44' W 095°10'0 0.0
2017-Nov-09 00:00N 29°44' W 095°10'0 0.0
2017-Nov-08 12:44N 29°44' W 095°10'0 0.1
2017-Nov-08 12:19N 29°44' W 095°10'0 0.0
2017-Nov-08 04:29N 29°44' W 095°09'0 0.0
2017-Nov-08 03:58N 29°44' W 095°09'0 0.2
2017-Nov-08 03:29N 29°44' W 095°10'0 0.0
2017-Nov-08 02:41N 29°44' W 095°10'1 0.4
2017-Nov-07 23:16N 29°44' W 095°08'  

Dump ship's entire track history